Time;durP1;ratioP1;P1;durP2;ratioP2;P2;SDS_P1;SDS_P2;PMS_P1;PMS_P2;Temp;Humidity;BMP_temperature;BMP_pressure;BME280_temperature;BME280_humidity;BME280_pressure;Samples;Min_cycle;Max_cycle;Signal;HPM_P1;HPM_P2
2023/05/06 10:06:24;;;;;;;14.95;8.70;;;19.50;99.90;;;;;;5067557;28;20332;-63
2023/05/06 10:08:52;;;;;;;14.40;9.57;;;19.40;99.90;;;;;;5067763;28;20477;-64
2023/05/06 10:11:20;;;;;;;14.90;9.38;;;19.50;99.90;;;;;;5068085;28;20120;-63
2023/05/06 10:13:46;;;;;;;12.30;8.00;;;19.60;99.90;;;;;;5066998;28;20573;-64
2023/05/06 10:16:13;;;;;;;14.63;8.90;;;19.70;99.90;;;;;;5067943;28;20024;-63
2023/05/06 10:18:40;;;;;;;12.60;7.35;;;19.70;99.90;;;;;;5068026;28;20055;-62
2023/05/06 10:21:12;;;;;;;11.27;7.22;;;19.70;99.90;;;;;;5066548;28;20020;-65
2023/05/06 10:23:55;;;;;;;10.40;6.88;;;19.90;99.90;;;;;;5068465;28;20449;-62
2023/05/06 10:26:21;;;;;;;11.57;7.55;;;20.10;99.90;;;;;;5067197;28;20089;-62
2023/05/06 10:28:51;;;;;;;11.38;7.78;;;20.30;99.90;;;;;;5067972;28;20028;-64
2023/05/06 10:31:18;;;;;;;11.53;6.57;;;20.40;99.90;;;;;;5066679;28;20020;-62
2023/05/06 10:33:48;;;;;;;10.73;6.00;;;20.50;99.90;;;;;;5067587;28;20017;-61
2023/05/06 10:36:21;;;;;;;15.65;8.48;;;20.70;99.90;;;;;;5067877;28;20502;-61
2023/05/06 10:38:56;;;;;;;11.10;7.10;;;20.80;99.90;;;;;;5067791;28;20025;-61
2023/05/06 10:41:24;;;;;;;10.07;6.03;;;20.90;99.90;;;;;;5067463;28;20035;-61
2023/05/06 10:43:55;;;;;;;11.00;6.93;;;21.00;99.90;;;;;;5067008;28;20530;-61
2023/05/06 10:46:22;;;;;;;10.02;6.90;;;21.10;99.90;;;;;;5068235;28;20029;-61
2023/05/06 10:49:07;;;;;;;18.92;13.13;;;21.30;99.90;;;;;;5054077;28;20025;-62
2023/05/06 10:51:39;;;;;;;9.32;6.13;;;21.40;99.90;;;;;;5047951;28;20505;-62
2023/05/06 10:54:22;;;;;;;12.73;6.63;;;21.50;99.90;;;;;;5047380;28;20036;-61
2023/05/06 10:56:47;;;;;;;11.35;5.35;;;21.40;99.90;;;;;;5048067;28;20037;-62
2023/05/06 10:59:13;;;;;;;10.63;5.65;;;21.30;99.90;;;;;;5047552;28;20025;-62
2023/05/06 11:01:41;;;;;;;15.10;9.73;;;21.30;99.90;;;;;;5046998;28;20033;-63
2023/05/06 11:04:18;;;;;;;9.90;6.20;;;21.30;99.90;;;;;;5053447;28;20029;-62
2023/05/06 11:06:51;;;;;;;8.75;5.45;;;21.40;99.90;;;;;;5088367;28;20119;-62
2023/05/06 11:09:20;;;;;;;8.73;4.75;;;21.40;99.90;;;;;;5075471;28;20017;-62
2023/05/06 11:11:47;;;;;;;10.10;5.97;;;21.50;99.90;;;;;;5049710;28;20036;-62
2023/05/06 11:14:15;;;;;;;9.10;5.82;;;21.50;99.90;;;;;;5049866;28;20073;-62
2023/05/06 11:16:49;;;;;;;10.65;5.15;;;21.50;99.90;;;;;;5059687;28;20021;-62
2023/05/06 11:19:34;;;;;;;8.55;5.40;;;21.50;99.90;;;;;;5053697;28;20068;-63
2023/05/06 11:22:03;;;;;;;7.00;5.10;;;21.60;99.90;;;;;;5070170;28;20032;-62
2023/05/06 11:24:29;;;;;;;8.85;5.32;;;21.70;99.90;;;;;;5073472;28;20029;-62
2023/05/06 11:26:59;;;;;;;9.23;5.00;;;21.90;99.90;;;;;;5056483;28;20031;-61
2023/05/06 11:29:25;;;;;;;7.40;4.70;;;22.00;99.90;;;;;;5072980;28;20039;-63
2023/05/06 11:31:52;;;;;;;7.63;4.63;;;22.00;99.90;;;;;;5056278;28;20024;-62
2023/05/06 11:34:29;;;;;;;9.93;6.20;;;22.10;99.70;;;;;;5072942;28;20019;-62
2023/05/06 11:37:00;;;;;;;8.95;5.25;;;22.20;99.10;;;;;;5069260;28;20104;-63
2023/05/06 11:39:29;;;;;;;7.13;5.05;;;22.30;98.10;;;;;;5035756;28;20024;-64
2023/05/06 11:41:59;;;;;;;7.90;4.40;;;22.30;97.40;;;;;;5059852;28;20017;-63
2023/05/06 11:44:45;;;;;;;7.90;4.53;;;22.40;95.00;;;;;;5054348;28;20033;-61
2023/05/06 11:47:10;;;;;;;8.43;4.68;;;22.40;95.40;;;;;;5053559;28;20376;-62
2023/05/06 11:49:39;;;;;;;8.02;4.70;;;22.40;94.80;;;;;;5053182;28;20134;-63
2023/05/06 11:52:06;;;;;;;9.38;5.18;;;22.40;94.60;;;;;;5053482;28;20021;-64
2023/05/06 11:54:38;;;;;;;7.00;4.03;;;22.40;94.70;;;;;;5052299;28;20128;-62
2023/05/06 11:57:04;;;;;;;8.38;5.00;;;22.50;95.30;;;;;;5058054;28;20033;-62
2023/05/06 11:59:36;;;;;;;7.85;4.95;;;22.60;94.90;;;;;;5042651;28;20023;-62
2023/05/06 12:02:03;;;;;;;8.18;4.85;;;22.60;93.90;;;;;;5065587;28;20025;-63
2023/05/06 12:04:43;;;;;;;10.20;5.20;;;22.60;93.50;;;;;;5059908;28;20041;-64
2023/05/06 12:07:11;;;;;;;6.78;4.97;;;22.60;92.90;;;;;;5071503;28;20477;-63
2023/05/06 12:09:43;;;;;;;10.57;5.63;;;22.60;92.10;;;;;;5071624;28;20036;-66
2023/05/06 12:12:09;;;;;;;8.70;5.20;;;22.70;91.90;;;;;;5072285;28;20051;-62
2023/05/06 12:14:36;;;;;;;9.02;5.28;;;22.70;90.90;;;;;;5065448;28;20103;-62
2023/05/06 12:17:02;;;;;;;9.38;4.93;;;22.80;91.10;;;;;;5053483;28;20056;-63
2023/05/06 12:19:28;;;;;;;9.63;4.80;;;22.80;90.90;;;;;;5052193;28;20192;-62
2023/05/06 12:21:54;;;;;;;6.28;3.88;;;22.70;90.50;;;;;;5052574;28;20033;-62
2023/05/06 12:24:29;;;;;;;6.60;3.90;;;22.70;90.30;;;;;;5053079;28;20033;-62
2023/05/06 12:26:55;;;;;;;7.38;4.38;;;22.70;90.70;;;;;;5052621;28;20021;-62
2023/05/06 12:29:21;;;;;;;7.05;4.13;;;22.80;90.30;;;;;;5066881;28;20474;-62
2023/05/06 12:31:47;;;;;;;9.02;4.32;;;22.80;89.60;;;;;;5066781;28;20028;-62
2023/05/06 12:34:15;;;;;;;7.10;4.00;;;22.80;89.30;;;;;;5052045;28;20023;-62
2023/05/06 12:36:45;;;;;;;6.75;3.85;;;22.70;89.90;;;;;;5053830;28;20079;-62
2023/05/06 12:39:12;;;;;;;6.38;3.60;;;22.80;90.20;;;;;;5053778;28;20025;-60
2023/05/06 12:41:45;;;;;;;7.40;3.67;;;22.90;90.30;;;;;;5053873;28;20025;-61
2023/05/06 12:44:31;;;;;;;6.00;3.47;;;23.00;89.70;;;;;;5064133;28;20047;-61
2023/05/06 12:46:57;;;;;;;9.32;4.82;;;23.00;86.00;;;;;;5072341;28;20031;-62
2023/05/06 12:49:23;;;;;;;7.13;4.15;;;23.00;85.70;;;;;;5072823;28;20054;-62
2023/05/06 12:52:05;;;;;;;6.00;3.30;;;23.00;86.30;;;;;;5073155;28;20431;-62
2023/05/06 12:54:31;;;;;;;7.18;3.83;;;23.00;86.10;;;;;;5072813;28;20107;-62
2023/05/06 12:56:56;;;;;;;6.80;3.95;;;23.10;86.30;;;;;;5073135;28;20024;-62
2023/05/06 12:59:25;;;;;;;6.88;3.85;;;23.10;85.70;;;;;;5072743;28;20028;-62
2023/05/06 13:01:51;;;;;;;7.20;4.75;;;23.10;84.70;;;;;;5072544;28;20112;-62
2023/05/06 13:04:16;;;;;;;7.35;4.00;;;23.10;83.10;;;;;;5072610;28;20084;-62
2023/05/06 13:06:42;;;;;;;7.70;4.10;;;23.00;83.30;;;;;;5073358;28;20384;-62
2023/05/06 13:09:08;;;;;;;6.38;3.97;;;22.90;82.30;;;;;;5072668;28;20024;-62
2023/05/06 13:11:34;;;;;;;8.13;4.10;;;22.90;82.50;;;;;;5054939;28;20043;-63
2023/05/06 13:13:59;;;;;;;6.35;4.30;;;22.90;82.00;;;;;;5072983;28;20484;-63
2023/05/06 13:16:26;;;;;;;6.35;4.07;;;22.90;81.80;;;;;;5054302;28;20013;-62
2023/05/06 13:18:52;;;;;;;5.88;3.35;;;22.90;81.50;;;;;;5072826;28;20028;-63
2023/05/06 13:21:17;;;;;;;5.88;4.00;;;22.90;81.70;;;;;;5054529;28;20021;-62
2023/05/06 13:23:46;;;;;;;8.43;4.65;;;23.00;82.20;;;;;;5072451;28;20052;-63
2023/05/06 13:26:12;;;;;;;7.88;4.32;;;23.20;81.30;;;;;;5072843;28;20028;-63
2023/05/06 13:28:38;;;;;;;6.38;4.28;;;23.30;81.20;;;;;;5054469;28;20107;-66
2023/05/06 13:31:04;;;;;;;7.75;4.40;;;23.40;79.50;;;;;;5072270;28;20033;-63
2023/05/06 13:33:30;;;;;;;6.93;4.50;;;23.40;79.20;;;;;;5072597;28;20029;-63
2023/05/06 13:35:56;;;;;;;10.27;4.68;;;23.30;78.10;;;;;;5072157;28;20020;-64
2023/05/06 13:38:22;;;;;;;6.55;4.18;;;23.30;78.70;;;;;;5072539;28;20029;-65
2023/05/06 13:40:52;;;;;;;6.20;4.10;;;23.40;79.00;;;;;;5054384;28;20059;-66
2023/05/06 13:43:18;;;;;;;9.45;4.45;;;23.50;78.90;;;;;;5072240;28;20036;-64
2023/05/06 13:45:44;;;;;;;7.80;4.13;;;23.70;78.20;;;;;;5072465;28;20483;-64
2023/05/06 13:48:11;;;;;;;7.25;4.15;;;23.80;78.00;;;;;;5066371;28;20028;-64
2023/05/06 13:50:36;;;;;;;8.52;4.05;;;23.80;76.80;;;;;;5035013;28;20025;-66
2023/05/06 13:53:03;;;;;;;6.88;4.47;;;23.80;78.00;;;;;;5052567;28;20021;-64
2023/05/06 13:55:28;;;;;;;5.57;3.67;;;23.90;78.50;;;;;;5034561;28;20021;-65
2023/05/06 13:57:54;;;;;;;7.65;3.88;;;24.00;79.20;;;;;;5034016;28;20082;-66
2023/05/06 14:00:20;;;;;;;6.57;3.42;;;24.10;77.80;;;;;;5052230;28;20021;-64
2023/05/06 14:02:45;;;;;;;7.93;3.88;;;24.00;77.20;;;;;;5053459;28;20401;-63
2023/05/06 14:05:11;;;;;;;5.85;3.60;;;24.10;77.00;;;;;;5033746;28;20049;-63
2023/05/06 14:07:37;;;;;;;6.63;3.80;;;24.20;76.90;;;;;;5034482;28;20025;-63
2023/05/06 14:10:03;;;;;;;8.10;3.60;;;24.20;76.10;;;;;;5034786;28;20108;-64
2023/05/06 14:12:28;;;;;;;6.35;3.72;;;24.30;74.60;;;;;;5051521;28;20032;-63
2023/05/06 14:14:54;;;;;;;6.68;4.75;;;24.30;74.40;;;;;;5052301;28;20489;-63
2023/05/06 14:17:19;;;;;;;6.68;3.75;;;24.20;73.90;;;;;;5035253;28;20513;-64
2023/05/06 14:19:45;;;;;;;6.05;3.72;;;24.10;73.80;;;;;;5064892;28;20377;-63
2023/05/06 14:22:11;;;;;;;7.20;3.40;;;24.00;74.60;;;;;;5072791;28;20060;-63
2023/05/06 14:24:36;;;;;;;5.82;3.38;;;24.00;74.80;;;;;;5054050;28;20024;-63
2023/05/06 14:27:03;;;;;;;6.97;3.65;;;24.00;74.80;;;;;;5070019;28;20028;-64
2023/05/06 14:29:28;;;;;;;5.68;3.30;;;24.00;74.10;;;;;;5053955;28;20012;-63
2023/05/06 14:31:54;;;;;;;7.28;3.15;;;24.20;74.10;;;;;;5072503;28;20369;-63
2023/05/06 14:34:19;;;;;;;6.25;3.60;;;24.30;72.80;;;;;;5071229;28;20032;-63
2023/05/06 14:36:45;;;;;;;5.70;2.90;;;24.50;70.50;;;;;;5054391;28;20035;-63
2023/05/06 14:39:11;;;;;;;4.53;2.70;;;24.80;70.30;;;;;;5071822;28;20422;-63
2023/05/06 14:41:37;;;;;;;6.07;3.10;;;25.00;68.80;;;;;;5070017;28;20028;-63
2023/05/06 14:44:03;;;;;;;8.13;3.38;;;25.30;69.10;;;;;;5067577;28;20353;-64
2023/05/06 14:46:28;;;;;;;5.28;2.90;;;25.40;67.00;;;;;;5051000;28;20038;-63
2023/05/06 14:48:54;;;;;;;6.50;3.33;;;25.40;67.30;;;;;;5034194;28;20044;-63
2023/05/06 14:51:20;;;;;;;6.32;2.88;;;25.30;67.60;;;;;;5034825;28;20052;-64
2023/05/06 14:53:45;;;;;;;4.07;2.40;;;25.20;68.00;;;;;;5055285;28;20025;-63
2023/05/06 14:56:11;;;;;;;4.93;2.53;;;25.20;67.70;;;;;;5058025;28;20372;-63
2023/05/06 14:58:38;;;;;;;7.13;3.08;;;25.20;67.10;;;;;;5055299;28;20017;-63
2023/05/06 15:01:03;;;;;;;5.30;2.92;;;25.20;67.40;;;;;;5037786;28;20032;-64
2023/05/06 15:03:29;;;;;;;4.03;2.50;;;25.40;66.90;;;;;;5055164;28;20024;-64
2023/05/06 15:05:55;;;;;;;4.03;2.40;;;25.90;66.70;;;;;;5019847;28;20514;-64
2023/05/06 15:08:21;;;;;;;5.72;2.65;;;26.40;66.00;;;;;;5015704;28;20494;-64
2023/05/06 15:10:48;;;;;;;3.33;2.30;;;26.90;62.60;;;;;;5035296;28;20021;-63
2023/05/06 15:13:14;;;;;;;5.75;2.70;;;27.00;62.40;;;;;;5034347;28;20025;-64
2023/05/06 15:15:40;;;;;;;4.40;2.65;;;26.90;61.00;;;;;;5016710;28;20038;-64
2023/05/06 15:18:06;;;;;;;5.63;3.10;;;26.90;60.20;;;;;;5015778;28;20459;-63
2023/05/06 15:20:32;;;;;;;4.47;2.83;;;27.00;60.00;;;;;;5015775;28;20033;-64
2023/05/06 15:22:58;;;;;;;5.60;3.00;;;27.30;59.80;;;;;;5015095;28;20025;-64
2023/05/06 15:25:23;;;;;;;5.57;2.53;;;27.60;60.00;;;;;;5015495;28;20034;-65
2023/05/06 15:27:49;;;;;;;5.90;1.92;;;28.00;58.40;;;;;;5022902;28;20025;-65
2023/05/06 15:30:15;;;;;;;4.35;2.05;;;28.10;57.50;;;;;;5028423;28;20034;-65
2023/05/06 15:32:41;;;;;;;5.22;2.28;;;28.10;56.50;;;;;;5015541;28;20022;-65
2023/05/06 15:35:07;;;;;;;5.07;2.60;;;27.90;56.60;;;;;;5015791;28;20037;-65
2023/05/06 15:37:33;;;;;;;6.43;4.18;;;27.70;56.80;;;;;;5013292;28;20079;-66
2023/05/06 15:39:59;;;;;;;6.40;4.03;;;27.40;56.40;;;;;;5013774;28;20057;-65
2023/05/06 15:42:25;;;;;;;7.88;4.63;;;27.20;56.50;;;;;;5013234;28;20102;-65
2023/05/06 15:44:52;;;;;;;6.18;3.70;;;27.00;57.20;;;;;;4998626;28;20431;-64
2023/05/06 15:47:18;;;;;;;7.57;4.05;;;26.80;56.80;;;;;;5031439;28;20049;-65
2023/05/06 15:49:43;;;;;;;9.88;5.32;;;26.60;57.20;;;;;;5015131;28;20064;-64
2023/05/06 15:52:09;;;;;;;9.70;5.47;;;26.50;57.60;;;;;;5015199;28;20030;-64
2023/05/06 15:54:35;;;;;;;7.53;3.65;;;26.40;57.90;;;;;;5014440;28;20026;-63
2023/05/06 15:57:04;;;;;;;7.13;3.58;;;26.20;58.40;;;;;;5014875;28;20032;-63
2023/05/06 15:59:30;;;;;;;8.35;4.43;;;26.10;58.70;;;;;;5015149;28;20076;-62
2023/05/06 16:01:56;;;;;;;8.77;4.05;;;25.90;58.90;;;;;;5017345;28;20426;-64
2023/05/06 16:04:22;;;;;;;7.75;2.92;;;25.90;58.70;;;;;;5025508;28;20033;-65
2023/05/06 16:06:48;;;;;;;4.75;2.25;;;25.80;58.70;;;;;;5036838;28;20478;-64
2023/05/06 16:09:13;;;;;;;3.60;2.10;;;25.70;59.30;;;;;;5053802;28;20032;-64
2023/05/06 16:11:39;;;;;;;4.70;1.90;;;25.50;59.30;;;;;;5065670;28;20035;-65
2023/05/06 16:14:04;;;;;;;4.88;3.03;;;25.40;59.70;;;;;;5039611;28;20080;-64
2023/05/06 16:16:30;;;;;;;4.80;2.10;;;25.30;60.30;;;;;;5053876;28;20068;-64
2023/05/06 16:18:56;;;;;;;7.38;3.78;;;25.10;59.50;;;;;;5062681;28;20019;-63
2023/05/06 16:21:21;;;;;;;3.30;1.80;;;24.80;60.30;;;;;;5056873;28;20381;-63
2023/05/06 16:23:47;;;;;;;3.97;1.67;;;24.60;61.30;;;;;;5054680;28;20462;-66
2023/05/06 16:26:13;;;;;;;4.65;1.95;;;24.50;62.00;;;;;;5053590;28;20075;-65
2023/05/06 16:28:40;;;;;;;2.28;1.60;;;24.40;62.70;;;;;;5035560;28;20116;-67
2023/05/06 16:31:05;;;;;;;3.10;1.60;;;24.30;62.90;;;;;;5036183;28;20059;-64
2023/05/06 16:33:31;;;;;;;4.22;2.03;;;24.10;63.20;;;;;;5058006;28;20059;-64
2023/05/06 16:35:57;;;;;;;3.70;1.95;;;24.00;63.40;;;;;;5054151;28;20040;-63
2023/05/06 16:38:23;;;;;;;4.65;1.80;;;23.80;63.90;;;;;;5035898;28;20020;-66
2023/05/06 16:40:50;;;;;;;4.40;2.40;;;23.70;64.80;;;;;;5053453;28;20029;-63
2023/05/06 16:43:18;;;;;;;4.68;2.00;;;23.60;65.50;;;;;;5063655;28;20021;-63
2023/05/06 16:45:45;;;;;;;4.05;2.15;;;23.50;65.90;;;;;;5069235;28;20047;-63
2023/05/06 16:48:12;;;;;;;5.50;2.20;;;23.40;66.70;;;;;;5054147;28;20029;-65
2023/05/06 16:50:39;;;;;;;4.60;2.30;;;23.40;67.40;;;;;;5073497;28;20138;-63
2023/05/06 16:53:05;;;;;;;5.90;2.30;;;23.30;67.90;;;;;;5055213;28;20024;-63
2023/05/06 16:55:31;;;;;;;3.70;2.08;;;23.30;68.10;;;;;;5049603;28;20088;-63
2023/05/06 16:57:59;;;;;;;4.35;2.05;;;23.20;68.20;;;;;;5066916;28;20107;-63
2023/05/06 17:00:25;;;;;;;3.25;1.83;;;23.10;68.30;;;;;;5071400;28;20049;-63
2023/05/06 17:02:51;;;;;;;4.20;2.10;;;23.10;68.50;;;;;;5056507;28;20021;-63
2023/05/06 17:05:17;;;;;;;3.65;2.40;;;23.00;68.60;;;;;;5053367;28;20041;-63
2023/05/06 17:07:43;;;;;;;4.20;1.95;;;22.90;68.90;;;;;;5052975;28;20401;-64
2023/05/06 17:10:09;;;;;;;3.20;1.80;;;22.80;69.10;;;;;;5053697;28;20032;-63
2023/05/06 17:12:34;;;;;;;4.20;1.90;;;22.80;69.80;;;;;;5035608;28;20147;-65
2023/05/06 17:15:01;;;;;;;4.90;2.05;;;22.70;70.20;;;;;;5034333;28;20033;-63
2023/05/06 17:17:27;;;;;;;5.30;2.08;;;22.70;70.40;;;;;;5052959;28;20466;-63
2023/05/06 17:19:56;;;;;;;4.63;2.20;;;22.60;70.80;;;;;;5050708;28;20024;-65
2023/05/06 17:22:23;;;;;;;3.25;2.22;;;22.60;71.40;;;;;;5053202;28;20059;-64
2023/05/06 17:24:49;;;;;;;4.03;1.95;;;22.50;71.60;;;;;;5053085;28;20517;-63
2023/05/06 17:27:15;;;;;;;5.22;2.42;;;22.40;72.10;;;;;;5052392;28;20037;-64
2023/05/06 17:29:41;;;;;;;4.55;2.20;;;22.40;72.50;;;;;;5052998;28;20017;-63
2023/05/06 17:32:07;;;;;;;4.10;2.33;;;22.30;73.00;;;;;;5035061;28;20025;-63
2023/05/06 17:34:32;;;;;;;5.68;2.28;;;22.20;73.20;;;;;;5052408;28;20029;-65
2023/05/06 17:36:58;;;;;;;4.70;2.10;;;22.20;73.20;;;;;;5053097;28;20031;-65
2023/05/06 17:39:25;;;;;;;5.03;2.30;;;22.10;73.40;;;;;;5034983;28;20040;-68
2023/05/06 17:41:51;;;;;;;3.55;2.10;;;22.10;73.80;;;;;;5052569;28;20021;-63
2023/05/06 17:44:17;;;;;;;5.30;2.13;;;22.00;74.30;;;;;;5052682;28;20021;-64
2023/05/06 17:46:46;;;;;;;4.75;2.17;;;22.00;74.50;;;;;;5052973;28;20500;-65
2023/05/06 17:49:11;;;;;;;4.15;2.13;;;21.90;74.50;;;;;;5052088;28;20358;-65
2023/05/06 17:51:37;;;;;;;2.58;1.48;;;21.70;75.00;;;;;;5052348;28;20522;-64
2023/05/06 17:54:03;;;;;;;1.85;1.58;;;21.50;77.10;;;;;;5053005;28;20029;-64
2023/05/06 17:56:28;;;;;;;8.43;3.38;;;21.20;79.30;;;;;;5034102;28;20033;-64
2023/05/06 17:58:55;;;;;;;2.88;1.55;;;20.90;80.70;;;;;;5052877;28;20037;-62
2023/05/06 18:01:20;;;;;;;3.55;1.90;;;20.60;82.10;;;;;;5051836;28;20397;-69
2023/05/06 18:03:46;;;;;;;5.57;2.20;;;20.40;83.80;;;;;;5053466;28;20025;-65
2023/05/06 18:06:12;;;;;;;4.68;2.10;;;20.20;85.10;;;;;;5060610;28;20052;-63
2023/05/06 18:08:37;;;;;;;4.43;1.70;;;20.00;87.30;;;;;;5034727;28;20039;-63
2023/05/06 18:11:03;;;;;;;3.30;1.73;;;19.90;90.20;;;;;;5034410;28;20036;-63
2023/05/06 18:13:31;;;;;;;4.18;2.10;;;19.60;92.20;;;;;;5052499;28;20048;-64
2023/05/06 18:15:56;;;;;;;3.15;2.15;;;19.30;95.00;;;;;;5062697;28;20045;-63
2023/05/06 18:18:22;;;;;;;3.47;2.00;;;19.00;97.40;;;;;;5043019;28;20025;-63
2023/05/06 18:20:47;;;;;;;3.72;2.10;;;18.80;99.90;;;;;;5034573;28;20017;-65
2023/05/06 18:23:13;;;;;;;4.55;2.05;;;18.60;99.90;;;;;;5051891;28;20021;-63
2023/05/06 18:25:38;;;;;;;3.03;1.67;;;18.40;99.90;;;;;;5042250;28;20123;-66
2023/05/06 18:28:04;;;;;;;4.57;2.33;;;18.20;99.90;;;;;;5058219;28;20031;-63
2023/05/06 18:30:30;;;;;;;3.58;1.80;;;18.10;99.90;;;;;;5075949;28;20381;-63
2023/05/06 18:32:55;;;;;;;4.22;2.08;;;18.00;99.90;;;;;;5076464;28;20021;-64
2023/05/06 18:35:21;;;;;;;4.20;2.13;;;17.90;99.90;;;;;;5076082;28;20481;-64
2023/05/06 18:37:46;;;;;;;3.78;2.20;;;17.80;99.90;;;;;;5057828;28;20078;-63
2023/05/06 18:40:13;;;;;;;3.92;2.65;;;17.80;99.90;;;;;;5074213;28;20103;-63
2023/05/06 18:42:39;;;;;;;4.45;2.20;;;17.70;99.90;;;;;;5058309;28;20020;-62
2023/05/06 18:45:06;;;;;;;4.05;2.28;;;17.80;99.90;;;;;;5075490;28;20035;-62
2023/05/06 18:47:31;;;;;;;4.50;2.28;;;17.80;99.90;;;;;;5075732;28;20100;-62
2023/05/06 18:49:59;;;;;;;3.45;2.20;;;17.80;99.90;;;;;;5040863;28;20111;-62
2023/05/06 18:52:25;;;;;;;3.42;2.10;;;17.80;99.90;;;;;;5037445;28;20483;-62
2023/05/06 18:54:51;;;;;;;3.47;2.22;;;17.70;99.90;;;;;;5055993;28;20032;-63
2023/05/06 18:57:18;;;;;;;4.78;2.20;;;17.70;99.90;;;;;;5055933;28;20078;-62
2023/05/06 18:59:44;;;;;;;3.92;2.28;;;17.60;99.90;;;;;;5055288;28;20527;-62
2023/05/06 19:02:10;;;;;;;4.30;2.13;;;17.50;99.90;;;;;;5056173;28;20033;-63
2023/05/06 19:04:35;;;;;;;6.18;3.70;;;17.30;99.90;;;;;;5073164;28;20044;-63
2023/05/06 19:07:01;;;;;;;4.80;2.20;;;17.30;99.90;;;;;;5073874;28;20107;-62
2023/05/06 19:09:27;;;;;;;4.53;2.42;;;17.30;99.90;;;;;;5075216;28;20586;-63
2023/05/06 19:11:52;;;;;;;5.18;2.40;;;17.40;99.90;;;;;;5056997;28;20017;-62
2023/05/06 19:14:18;;;;;;;6.28;2.80;;;17.40;99.90;;;;;;5072271;28;20385;-63
2023/05/06 19:16:44;;;;;;;6.07;3.30;;;17.40;99.90;;;;;;5055397;28;20043;-62
2023/05/06 19:19:10;;;;;;;4.22;2.78;;;17.40;99.90;;;;;;5036998;28;20017;-63
2023/05/06 19:21:38;;;;;;;6.70;3.05;;;17.40;99.90;;;;;;5037206;28;20029;-63
2023/05/06 19:24:05;;;;;;;3.97;2.40;;;17.30;99.90;;;;;;5055540;28;20444;-63
2023/05/06 19:26:30;;;;;;;3.72;2.47;;;17.30;99.90;;;;;;5054632;28;20462;-64
2023/05/06 19:28:56;;;;;;;6.50;3.25;;;17.20;99.90;;;;;;5056866;28;20100;-62
2023/05/06 19:31:22;;;;;;;5.68;3.50;;;17.20;99.90;;;;;;5055241;28;20025;-63
2023/05/06 19:33:48;;;;;;;6.78;3.92;;;17.20;99.90;;;;;;5036993;28;20078;-63
2023/05/06 19:36:15;;;;;;;6.22;4.03;;;17.10;99.90;;;;;;5037059;28;20025;-63
2023/05/06 19:38:41;;;;;;;4.35;2.53;;;17.10;99.90;;;;;;5055918;28;20531;-63
2023/05/06 19:41:07;;;;;;;7.28;2.60;;;17.00;99.90;;;;;;5036660;28;20021;-63
2023/05/06 19:43:38;;;;;;;4.63;2.92;;;17.00;99.90;;;;;;5055870;28;20029;-63
2023/05/06 19:46:05;;;;;;;8.18;4.63;;;17.00;99.90;;;;;;5037525;28;20105;-63
2023/05/06 19:48:32;;;;;;;8.35;5.60;;;16.90;99.90;;;;;;5037291;28;20381;-62
2023/05/06 19:50:58;;;;;;;8.00;5.90;;;16.90;99.90;;;;;;5055184;28;20033;-63
2023/05/06 19:53:24;;;;;;;8.02;3.53;;;16.90;99.90;;;;;;5054698;28;20017;-63
2023/05/06 19:55:52;;;;;;;4.43;2.83;;;16.90;99.90;;;;;;5036502;28;20041;-62
2023/05/06 19:58:18;;;;;;;4.35;2.75;;;16.90;99.90;;;;;;5036554;28;20087;-63
2023/05/06 20:00:44;;;;;;;4.32;2.83;;;16.90;99.90;;;;;;5058975;28;20016;-63
2023/05/06 20:03:09;;;;;;;4.43;2.63;;;16.90;99.90;;;;;;5062821;28;20092;-62
2023/05/06 20:05:35;;;;;;;4.30;2.88;;;16.90;99.90;;;;;;5044891;28;20094;-63
2023/05/06 20:08:00;;;;;;;4.07;3.22;;;17.00;99.90;;;;;;5028891;28;20762;-62
2023/05/06 20:10:28;;;;;;;5.55;2.85;;;17.00;99.90;;;;;;5063074;28;20096;-62
2023/05/06 20:12:54;;;;;;;5.32;2.70;;;17.00;99.90;;;;;;5065530;28;20020;-61
2023/05/06 20:15:19;;;;;;;5.78;2.60;;;17.00;99.90;;;;;;5062493;28;20108;-62
2023/05/06 20:17:45;;;;;;;6.50;3.15;;;17.00;99.90;;;;;;5046040;28;20025;-62
2023/05/06 20:20:11;;;;;;;3.75;2.60;;;17.00;99.90;;;;;;5063989;28;20115;-62
2023/05/06 20:22:38;;;;;;;4.70;2.95;;;17.00;99.90;;;;;;5044017;28;20017;-62
2023/05/06 20:25:08;;;;;;;7.13;2.90;;;17.00;99.90;;;;;;5046265;28;20020;-62
2023/05/06 20:27:34;;;;;;;4.90;2.97;;;17.00;99.90;;;;;;5046479;28;20489;-62
2023/05/06 20:30:00;;;;;;;6.22;3.83;;;17.00;99.90;;;;;;5044874;28;20021;-62
2023/05/06 20:32:26;;;;;;;6.40;4.10;;;17.10;99.90;;;;;;5043209;28;20043;-61
2023/05/06 20:34:52;;;;;;;8.07;3.83;;;17.10;99.90;;;;;;5046547;28;20032;-62
2023/05/06 20:37:18;;;;;;;6.57;3.50;;;17.10;99.90;;;;;;5061792;28;20024;-63
2023/05/06 20:39:44;;;;;;;5.93;3.25;;;17.10;99.90;;;;;;5063257;28;20099;-62
2023/05/06 20:42:10;;;;;;;6.68;3.20;;;17.10;99.90;;;;;;5045502;28;20385;-63
2023/05/06 20:44:35;;;;;;;4.97;3.22;;;17.10;99.90;;;;;;5061275;28;20025;-61
2023/05/06 20:47:02;;;;;;;4.20;2.95;;;17.00;99.90;;;;;;5042601;28;20025;-61
2023/05/06 20:49:29;;;;;;;5.70;3.40;;;17.00;99.90;;;;;;5061361;28;20548;-61
2023/05/06 20:51:55;;;;;;;5.13;3.17;;;17.00;99.90;;;;;;5042757;28;20025;-61
2023/05/06 20:54:21;;;;;;;6.40;3.20;;;17.00;99.90;;;;;;5044943;28;20075;-61
2023/05/06 20:56:47;;;;;;;6.57;3.55;;;17.00;99.90;;;;;;5063285;28;20025;-60
2023/05/06 20:59:12;;;;;;;7.30;4.03;;;16.90;99.90;;;;;;5061188;28;20021;-61
2023/05/06 21:01:38;;;;;;;6.63;3.70;;;16.90;99.90;;;;;;5045447;28;20404;-60
2023/05/06 21:04:05;;;;;;;9.68;4.40;;;16.80;99.90;;;;;;5062744;28;20424;-61
2023/05/06 21:06:31;;;;;;;10.82;4.10;;;16.80;99.90;;;;;;5061066;28;20480;-61
2023/05/06 21:08:56;;;;;;;6.15;3.63;;;16.80;99.90;;;;;;5063578;28;20023;-60
2023/05/06 21:11:22;;;;;;;5.50;3.80;;;16.70;99.90;;;;;;5043697;28;20078;-62
2023/05/06 21:13:48;;;;;;;6.90;4.00;;;16.80;99.90;;;;;;5062119;28;20495;-62
2023/05/06 21:16:13;;;;;;;6.80;4.25;;;16.70;99.90;;;;;;5063901;28;20036;-62
